sensor_id;sensor_type;location;lat;lon;timestamp;P1;durP1;ratioP1;P2;durP2;ratioP2
53674;SDS011;39574;50.534;8.500;2022-09-09T00:04:39;3.2;;;1.0;;
53674;SDS011;39574;50.534;8.500;2022-09-09T00:09:40;2.6;;;1.0;;
53674;SDS011;39574;50.534;8.500;2022-09-09T00:19:38;3.0;;;0.9;;
53674;SDS011;39574;50.534;8.500;2022-09-09T00:24:38;2.9;;;0.8;;
53674;SDS011;39574;50.534;8.500;2022-09-09T00:34:35;3.0;;;0.7;;
53674;SDS011;39574;50.534;8.500;2022-09-09T00:39:36;3.0;;;0.7;;
53674;SDS011;39574;50.534;8.500;2022-09-09T00:44:34;3.3;;;0.9;;
53674;SDS011;39574;50.534;8.500;2022-09-09T00:49:36;2.8;;;0.9;;
53674;SDS011;39574;50.534;8.500;2022-09-09T00:54:35;2.8;;;0.8;;
53674;SDS011;39574;50.534;8.500;2022-09-09T00:59:32;2.4;;;0.8;;
53674;SDS011;39574;50.534;8.500;2022-09-09T01:04:32;2.5;;;0.7;;
53674;SDS011;39574;50.534;8.500;2022-09-09T01:09:32;2.7;;;0.8;;
53674;SDS011;39574;50.534;8.500;2022-09-09T01:14:32;2.5;;;0.8;;
53674;SDS011;39574;50.534;8.500;2022-09-09T01:19:33;2.5;;;0.7;;
53674;SDS011;39574;50.534;8.500;2022-09-09T01:24:30;3.0;;;0.7;;
53674;SDS011;39574;50.534;8.500;2022-09-09T01:29:27;2.9;;;0.7;;
53674;SDS011;39574;50.534;8.500;2022-09-09T01:34:27;3.3;;;0.8;;
53674;SDS011;39574;50.534;8.500;2022-09-09T01:39:25;3.3;;;0.8;;
53674;SDS011;39574;50.534;8.500;2022-09-09T01:44:24;2.9;;;0.8;;
53674;SDS011;39574;50.534;8.500;2022-09-09T01:49:24;3.1;;;0.8;;
53674;SDS011;39574;50.534;8.500;2022-09-09T01:54:24;4.0;;;0.9;;
53674;SDS011;39574;50.534;8.500;2022-09-09T01:59:24;3.9;;;0.8;;
53674;SDS011;39574;50.534;8.500;2022-09-09T02:04:24;3.5;;;0.7;;
53674;SDS011;39574;50.534;8.500;2022-09-09T02:09:22;3.5;;;0.8;;
53674;SDS011;39574;50.534;8.500;2022-09-09T02:14:22;3.2;;;0.8;;
53674;SDS011;39574;50.534;8.500;2022-09-09T02:19:20;3.4;;;0.8;;
53674;SDS011;39574;50.534;8.500;2022-09-09T02:24:19;3.2;;;0.8;;
53674;SDS011;39574;50.534;8.500;2022-09-09T02:29:19;3.5;;;0.8;;
53674;SDS011;39574;50.534;8.500;2022-09-09T02:34:18;3.7;;;0.8;;
53674;SDS011;39574;50.534;8.500;2022-09-09T02:39:16;3.8;;;0.8;;
53674;SDS011;39574;50.534;8.500;2022-09-09T02:44:16;4.0;;;0.8;;
53674;SDS011;39574;50.534;8.500;2022-09-09T02:49:16;4.2;;;0.7;;
53674;SDS011;39574;50.534;8.500;2022-09-09T02:54:16;4.2;;;0.8;;
53674;SDS011;39574;50.534;8.500;2022-09-09T02:59:13;3.5;;;0.7;;
53674;SDS011;39574;50.534;8.500;2022-09-09T03:04:12;3.4;;;0.8;;
53674;SDS011;39574;50.534;8.500;2022-09-09T03:09:12;3.0;;;0.7;;
53674;SDS011;39574;50.534;8.500;2022-09-09T03:14:11;3.2;;;0.8;;
53674;SDS011;39574;50.534;8.500;2022-09-09T03:19:10;3.4;;;0.8;;
53674;SDS011;39574;50.534;8.500;2022-09-09T03:24:09;4.1;;;0.8;;
53674;SDS011;39574;50.534;8.500;2022-09-09T03:29:09;4.2;;;0.8;;
53674;SDS011;39574;50.534;8.500;2022-09-09T03:34:08;3.7;;;0.8;;
53674;SDS011;39574;50.534;8.500;2022-09-09T03:39:07;3.5;;;0.8;;
53674;SDS011;39574;50.534;8.500;2022-09-09T03:44:06;3.5;;;0.9;;
53674;SDS011;39574;50.534;8.500;2022-09-09T03:49:06;3.5;;;0.9;;
53674;SDS011;39574;50.534;8.500;2022-09-09T03:54:05;4.2;;;1.0;;
53674;SDS011;39574;50.534;8.500;2022-09-09T03:59:05;3.9;;;1.0;;
53674;SDS011;39574;50.534;8.500;2022-09-09T04:04:04;3.5;;;1.1;;
53674;SDS011;39574;50.534;8.500;2022-09-09T04:09:03;3.7;;;1.1;;
53674;SDS011;39574;50.534;8.500;2022-09-09T04:14:03;3.2;;;1.0;;
53674;SDS011;39574;50.534;8.500;2022-09-09T04:19:02;2.9;;;1.0;;
53674;SDS011;39574;50.534;8.500;2022-09-09T04:24:03;3.0;;;1.0;;
53674;SDS011;39574;50.534;8.500;2022-09-09T04:29:03;3.3;;;0.9;;
53674;SDS011;39574;50.534;8.500;2022-09-09T04:34:00;3.5;;;0.9;;
53674;SDS011;39574;50.534;8.500;2022-09-09T04:38:59;4.7;;;1.0;;
53674;SDS011;39574;50.534;8.500;2022-09-09T04:43:58;3.9;;;0.9;;
53674;SDS011;39574;50.534;8.500;2022-09-09T04:48:58;4.2;;;0.9;;
53674;SDS011;39574;50.534;8.500;2022-09-09T04:53:57;4.0;;;0.9;;
53674;SDS011;39574;50.534;8.500;2022-09-09T04:58:56;5.2;;;1.0;;
53674;SDS011;39574;50.534;8.500;2022-09-09T05:03:55;4.8;;;1.1;;
53674;SDS011;39574;50.534;8.500;2022-09-09T05:08:55;4.8;;;1.1;;
53674;SDS011;39574;50.534;8.500;2022-09-09T05:13:54;4.8;;;1.0;;
53674;SDS011;39574;50.534;8.500;2022-09-09T05:18:53;4.6;;;1.0;;
53674;SDS011;39574;50.534;8.500;2022-09-09T05:23:53;4.3;;;1.0;;
53674;SDS011;39574;50.534;8.500;2022-09-09T05:28:52;4.4;;;1.1;;
53674;SDS011;39574;50.534;8.500;2022-09-09T05:33:51;4.9;;;1.2;;
53674;SDS011;39574;50.534;8.500;2022-09-09T05:38:51;5.0;;;1.2;;
53674;SDS011;39574;50.534;8.500;2022-09-09T05:43:50;4.8;;;1.2;;
53674;SDS011;39574;50.534;8.500;2022-09-09T05:48:49;4.5;;;1.2;;
53674;SDS011;39574;50.534;8.500;2022-09-09T05:53:48;4.4;;;1.1;;
53674;SDS011;39574;50.534;8.500;2022-09-09T05:58:48;4.8;;;1.2;;
53674;SDS011;39574;50.534;8.500;2022-09-09T06:03:48;4.2;;;1.1;;
53674;SDS011;39574;50.534;8.500;2022-09-09T06:08:47;3.9;;;1.1;;
53674;SDS011;39574;50.534;8.500;2022-09-09T06:13:46;3.4;;;1.1;;
53674;SDS011;39574;50.534;8.500;2022-09-09T06:18:45;4.1;;;1.1;;
53674;SDS011;39574;50.534;8.500;2022-09-09T06:23:45;4.0;;;1.1;;
53674;SDS011;39574;50.534;8.500;2022-09-09T06:28:44;4.3;;;1.1;;
53674;SDS011;39574;50.534;8.500;2022-09-09T06:33:43;5.3;;;1.2;;
53674;SDS011;39574;50.534;8.500;2022-09-09T06:38:42;5.0;;;1.2;;
53674;SDS011;39574;50.534;8.500;2022-09-09T06:43:42;4.4;;;1.1;;
53674;SDS011;39574;50.534;8.500;2022-09-09T06:48:41;4.9;;;1.1;;
53674;SDS011;39574;50.534;8.500;2022-09-09T06:53:41;4.3;;;1.1;;
53674;SDS011;39574;50.534;8.500;2022-09-09T06:58:40;5.1;;;1.2;;
53674;SDS011;39574;50.534;8.500;2022-09-09T07:03:39;5.3;;;1.2;;
53674;SDS011;39574;50.534;8.500;2022-09-09T07:08:38;4.7;;;1.1;;
53674;SDS011;39574;50.534;8.500;2022-09-09T07:13:37;4.5;;;1.2;;
53674;SDS011;39574;50.534;8.500;2022-09-09T07:18:37;4.7;;;1.4;;
53674;SDS011;39574;50.534;8.500;2022-09-09T07:23:36;5.6;;;1.4;;
53674;SDS011;39574;50.534;8.500;2022-09-09T07:28:36;5.2;;;1.3;;
53674;SDS011;39574;50.534;8.500;2022-09-09T07:33:35;5.3;;;1.2;;
53674;SDS011;39574;50.534;8.500;2022-09-09T07:38:37;5.2;;;1.3;;
53674;SDS011;39574;50.534;8.500;2022-09-09T07:43:34;4.8;;;1.2;;
53674;SDS011;39574;50.534;8.500;2022-09-09T07:48:33;4.6;;;1.2;;
53674;SDS011;39574;50.534;8.500;2022-09-09T07:53:33;4.2;;;1.2;;
53674;SDS011;39574;50.534;8.500;2022-09-09T07:58:32;3.9;;;1.1;;
53674;SDS011;39574;50.534;8.500;2022-09-09T08:03:31;4.2;;;1.1;;
53674;SDS011;39574;50.534;8.500;2022-09-09T08:08:30;4.6;;;1.2;;
53674;SDS011;39574;50.534;8.500;2022-09-09T08:13:30;4.6;;;1.1;;
53674;SDS011;39574;50.534;8.500;2022-09-09T08:18:29;5.0;;;1.1;;
53674;SDS011;39574;50.534;8.500;2022-09-09T08:23:29;6.0;;;1.2;;
53674;SDS011;39574;50.534;8.500;2022-09-09T08:28:28;5.5;;;1.1;;
53674;SDS011;39574;50.534;8.500;2022-09-09T08:33:27;5.4;;;1.2;;
53674;SDS011;39574;50.534;8.500;2022-09-09T08:38:27;4.7;;;1.1;;
53674;SDS011;39574;50.534;8.500;2022-09-09T08:43:26;4.9;;;1.1;;
53674;SDS011;39574;50.534;8.500;2022-09-09T08:48:31;4.7;;;1.1;;
53674;SDS011;39574;50.534;8.500;2022-09-09T08:53:26;4.3;;;1.1;;
53674;SDS011;39574;50.534;8.500;2022-09-09T08:58:25;4.7;;;1.1;;
53674;SDS011;39574;50.534;8.500;2022-09-09T09:03:26;4.2;;;1.3;;
53674;SDS011;39574;50.534;8.500;2022-09-09T09:08:25;4.4;;;1.2;;
53674;SDS011;39574;50.534;8.500;2022-09-09T09:13:24;5.1;;;1.2;;
53674;SDS011;39574;50.534;8.500;2022-09-09T09:18:22;5.6;;;1.3;;
53674;SDS011;39574;50.534;8.500;2022-09-09T09:23:22;6.0;;;1.3;;
53674;SDS011;39574;50.534;8.500;2022-09-09T09:28:22;5.6;;;1.3;;
53674;SDS011;39574;50.534;8.500;2022-09-09T09:33:21;5.0;;;1.3;;
53674;SDS011;39574;50.534;8.500;2022-09-09T09:38:21;4.3;;;1.1;;
53674;SDS011;39574;50.534;8.500;2022-09-09T09:43:20;4.0;;;1.0;;
53674;SDS011;39574;50.534;8.500;2022-09-09T09:48:19;3.7;;;0.9;;
53674;SDS011;39574;50.534;8.500;2022-09-09T09:53:20;3.7;;;0.9;;
53674;SDS011;39574;50.534;8.500;2022-09-09T09:58:18;4.5;;;1.0;;
53674;SDS011;39574;50.534;8.500;2022-09-09T10:03:21;4.1;;;1.0;;
53674;SDS011;39574;50.534;8.500;2022-09-09T10:08:17;3.3;;;1.0;;
53674;SDS011;39574;50.534;8.500;2022-09-09T10:13:18;3.3;;;1.0;;
53674;SDS011;39574;50.534;8.500;2022-09-09T10:18:21;3.8;;;1.0;;
53674;SDS011;39574;50.534;8.500;2022-09-09T10:23:19;4.6;;;1.1;;
53674;SDS011;39574;50.534;8.500;2022-09-09T10:28:19;5.0;;;1.2;;
53674;SDS011;39574;50.534;8.500;2022-09-09T10:33:16;4.7;;;1.2;;
53674;SDS011;39574;50.534;8.500;2022-09-09T10:38:14;5.0;;;1.2;;
53674;SDS011;39574;50.534;8.500;2022-09-09T10:43:18;4.9;;;1.2;;
53674;SDS011;39574;50.534;8.500;2022-09-09T10:48:16;4.6;;;1.3;;
53674;SDS011;39574;50.534;8.500;2022-09-09T10:53:13;5.2;;;1.5;;
53674;SDS011;39574;50.534;8.500;2022-09-09T10:58:12;5.2;;;1.6;;
53674;SDS011;39574;50.534;8.500;2022-09-09T11:03:13;4.7;;;1.5;;
53674;SDS011;39574;50.534;8.500;2022-09-09T11:08:11;4.6;;;1.4;;
53674;SDS011;39574;50.534;8.500;2022-09-09T11:13:10;4.2;;;1.2;;
53674;SDS011;39574;50.534;8.500;2022-09-09T11:18:10;3.8;;;1.1;;
53674;SDS011;39574;50.534;8.500;2022-09-09T11:23:09;3.6;;;1.1;;
53674;SDS011;39574;50.534;8.500;2022-09-09T11:28:12;3.6;;;1.1;;
53674;SDS011;39574;50.534;8.500;2022-09-09T11:33:12;4.7;;;1.2;;
53674;SDS011;39574;50.534;8.500;2022-09-09T11:38:12;4.2;;;1.0;;
53674;SDS011;39574;50.534;8.500;2022-09-09T11:43:09;3.9;;;0.9;;
53674;SDS011;39574;50.534;8.500;2022-09-09T11:48:20;3.8;;;1.1;;
53674;SDS011;39574;50.534;8.500;2022-09-09T11:53:17;3.6;;;1.0;;
53674;SDS011;39574;50.534;8.500;2022-09-09T11:58:06;3.6;;;1.0;;
53674;SDS011;39574;50.534;8.500;2022-09-09T12:03:05;3.5;;;0.9;;
53674;SDS011;39574;50.534;8.500;2022-09-09T12:08:04;3.4;;;0.9;;
53674;SDS011;39574;50.534;8.500;2022-09-09T12:13:08;3.7;;;1.0;;
53674;SDS011;39574;50.534;8.500;2022-09-09T12:18:03;3.3;;;0.9;;
53674;SDS011;39574;50.534;8.500;2022-09-09T12:23:09;3.2;;;0.8;;
53674;SDS011;39574;50.534;8.500;2022-09-09T12:28:04;3.5;;;0.9;;
53674;SDS011;39574;50.534;8.500;2022-09-09T12:33:07;3.4;;;0.8;;
53674;SDS011;39574;50.534;8.500;2022-09-09T12:38:03;4.0;;;0.7;;
53674;SDS011;39574;50.534;8.500;2022-09-09T12:43:14;3.4;;;0.6;;
53674;SDS011;39574;50.534;8.500;2022-09-09T12:48:03;2.8;;;0.6;;
53674;SDS011;39574;50.534;8.500;2022-09-09T12:53:03;2.4;;;0.6;;
53674;SDS011;39574;50.534;8.500;2022-09-09T12:58:02;2.5;;;0.6;;
53674;SDS011;39574;50.534;8.500;2022-09-09T13:03:00;2.5;;;0.7;;
53674;SDS011;39574;50.534;8.500;2022-09-09T13:08:00;2.3;;;0.7;;
53674;SDS011;39574;50.534;8.500;2022-09-09T13:12:59;2.3;;;0.6;;
53674;SDS011;39574;50.534;8.500;2022-09-09T13:17:59;2.8;;;0.6;;
53674;SDS011;39574;50.534;8.500;2022-09-09T13:22:58;2.7;;;0.7;;
53674;SDS011;39574;50.534;8.500;2022-09-09T13:27:58;4.7;;;1.0;;
53674;SDS011;39574;50.534;8.500;2022-09-09T13:33:05;5.0;;;1.3;;
53674;SDS011;39574;50.534;8.500;2022-09-09T13:37:56;6.4;;;1.4;;
53674;SDS011;39574;50.534;8.500;2022-09-09T13:42:56;5.9;;;1.3;;
53674;SDS011;39574;50.534;8.500;2022-09-09T13:47:55;4.7;;;1.2;;
53674;SDS011;39574;50.534;8.500;2022-09-09T13:52:55;3.7;;;1.0;;
53674;SDS011;39574;50.534;8.500;2022-09-09T13:57:55;2.9;;;0.8;;
53674;SDS011;39574;50.534;8.500;2022-09-09T14:02:53;2.5;;;0.8;;
53674;SDS011;39574;50.534;8.500;2022-09-09T14:07:53;2.6;;;0.8;;
53674;SDS011;39574;50.534;8.500;2022-09-09T14:12:53;2.8;;;0.7;;
53674;SDS011;39574;50.534;8.500;2022-09-09T14:17:52;3.9;;;0.8;;
53674;SDS011;39574;50.534;8.500;2022-09-09T14:22:52;3.6;;;0.7;;
53674;SDS011;39574;50.534;8.500;2022-09-09T14:27:51;3.2;;;0.7;;
53674;SDS011;39574;50.534;8.500;2022-09-09T14:32:51;2.9;;;0.7;;
53674;SDS011;39574;50.534;8.500;2022-09-09T14:37:51;2.2;;;0.6;;
53674;SDS011;39574;50.534;8.500;2022-09-09T14:42:52;2.0;;;0.5;;
53674;SDS011;39574;50.534;8.500;2022-09-09T14:47:50;2.9;;;0.5;;
53674;SDS011;39574;50.534;8.500;2022-09-09T14:52:50;3.4;;;0.6;;
53674;SDS011;39574;50.534;8.500;2022-09-09T14:57:49;3.3;;;0.8;;
53674;SDS011;39574;50.534;8.500;2022-09-09T15:02:51;2.9;;;0.8;;
53674;SDS011;39574;50.534;8.500;2022-09-09T15:07:48;2.8;;;1.0;;
53674;SDS011;39574;50.534;8.500;2022-09-09T15:12:47;3.0;;;1.0;;
53674;SDS011;39574;50.534;8.500;2022-09-09T15:17:47;3.8;;;1.0;;
53674;SDS011;39574;50.534;8.500;2022-09-09T15:22:46;3.6;;;0.9;;
53674;SDS011;39574;50.534;8.500;2022-09-09T15:27:46;3.6;;;0.8;;
53674;SDS011;39574;50.534;8.500;2022-09-09T15:32:45;3.4;;;0.8;;
53674;SDS011;39574;50.534;8.500;2022-09-09T15:37:44;3.2;;;0.8;;
53674;SDS011;39574;50.534;8.500;2022-09-09T15:42:44;3.0;;;0.6;;
53674;SDS011;39574;50.534;8.500;2022-09-09T15:47:43;2.8;;;0.7;;
53674;SDS011;39574;50.534;8.500;2022-09-09T15:52:43;3.5;;;0.7;;
53674;SDS011;39574;50.534;8.500;2022-09-09T15:57:42;3.4;;;0.8;;
53674;SDS011;39574;50.534;8.500;2022-09-09T16:02:41;2.7;;;0.8;;
53674;SDS011;39574;50.534;8.500;2022-09-09T16:07:41;3.2;;;0.8;;
53674;SDS011;39574;50.534;8.500;2022-09-09T16:12:40;3.0;;;0.9;;
53674;SDS011;39574;50.534;8.500;2022-09-09T16:17:40;3.2;;;0.9;;
53674;SDS011;39574;50.534;8.500;2022-09-09T16:22:39;3.2;;;0.8;;
53674;SDS011;39574;50.534;8.500;2022-09-09T16:27:38;3.3;;;1.1;;
53674;SDS011;39574;50.534;8.500;2022-09-09T16:32:38;3.8;;;1.0;;
53674;SDS011;39574;50.534;8.500;2022-09-09T16:37:37;3.4;;;0.9;;
53674;SDS011;39574;50.534;8.500;2022-09-09T16:42:36;3.6;;;1.0;;
53674;SDS011;39574;50.534;8.500;2022-09-09T16:47:36;3.7;;;1.0;;
53674;SDS011;39574;50.534;8.500;2022-09-09T16:52:35;4.0;;;1.2;;
53674;SDS011;39574;50.534;8.500;2022-09-09T16:57:34;3.7;;;1.1;;
53674;SDS011;39574;50.534;8.500;2022-09-09T17:02:34;4.1;;;1.1;;
53674;SDS011;39574;50.534;8.500;2022-09-09T17:07:33;3.7;;;1.1;;
53674;SDS011;39574;50.534;8.500;2022-09-09T17:12:33;3.6;;;1.1;;
53674;SDS011;39574;50.534;8.500;2022-09-09T17:17:32;3.3;;;1.0;;
53674;SDS011;39574;50.534;8.500;2022-09-09T17:27:30;3.5;;;0.9;;
53674;SDS011;39574;50.534;8.500;2022-09-09T17:32:30;3.9;;;0.9;;
53674;SDS011;39574;50.534;8.500;2022-09-09T17:37:29;3.6;;;0.8;;
53674;SDS011;39574;50.534;8.500;2022-09-09T17:42:29;3.4;;;0.7;;
53674;SDS011;39574;50.534;8.500;2022-09-09T17:47:28;2.6;;;0.6;;
53674;SDS011;39574;50.534;8.500;2022-09-09T17:52:27;2.4;;;0.6;;
53674;SDS011;39574;50.534;8.500;2022-09-09T17:57:26;2.2;;;0.5;;
53674;SDS011;39574;50.534;8.500;2022-09-09T18:02:26;1.9;;;0.5;;
53674;SDS011;39574;50.534;8.500;2022-09-09T18:07:25;1.6;;;0.5;;
53674;SDS011;39574;50.534;8.500;2022-09-09T18:12:24;1.7;;;0.4;;
53674;SDS011;39574;50.534;8.500;2022-09-09T18:17:24;1.6;;;0.5;;
53674;SDS011;39574;50.534;8.500;2022-09-09T18:22:23;2.3;;;0.6;;
53674;SDS011;39574;50.534;8.500;2022-09-09T18:27:22;2.6;;;0.9;;
53674;SDS011;39574;50.534;8.500;2022-09-09T18:32:22;2.8;;;0.9;;
53674;SDS011;39574;50.534;8.500;2022-09-09T18:37:21;3.0;;;0.9;;
53674;SDS011;39574;50.534;8.500;2022-09-09T18:42:20;2.5;;;0.8;;
53674;SDS011;39574;50.534;8.500;2022-09-09T18:47:20;2.5;;;0.6;;
53674;SDS011;39574;50.534;8.500;2022-09-09T18:52:19;2.3;;;0.6;;
53674;SDS011;39574;50.534;8.500;2022-09-09T18:57:18;2.9;;;0.8;;
53674;SDS011;39574;50.534;8.500;2022-09-09T19:02:17;2.6;;;0.7;;
53674;SDS011;39574;50.534;8.500;2022-09-09T19:07:17;2.7;;;0.6;;
53674;SDS011;39574;50.534;8.500;2022-09-09T19:12:16;2.5;;;0.6;;
53674;SDS011;39574;50.534;8.500;2022-09-09T19:17:15;2.0;;;0.6;;
53674;SDS011;39574;50.534;8.500;2022-09-09T19:22:15;3.0;;;0.7;;
53674;SDS011;39574;50.534;8.500;2022-09-09T19:27:14;2.5;;;0.7;;
53674;SDS011;39574;50.534;8.500;2022-09-09T19:32:13;2.3;;;0.6;;
53674;SDS011;39574;50.534;8.500;2022-09-09T19:37:13;2.0;;;0.6;;
53674;SDS011;39574;50.534;8.500;2022-09-09T19:42:12;1.8;;;0.6;;
53674;SDS011;39574;50.534;8.500;2022-09-09T19:47:11;2.0;;;0.7;;
53674;SDS011;39574;50.534;8.500;2022-09-09T19:52:11;2.9;;;0.8;;
53674;SDS011;39574;50.534;8.500;2022-09-09T19:57:10;2.8;;;0.8;;
53674;SDS011;39574;50.534;8.500;2022-09-09T20:02:10;2.8;;;0.8;;
53674;SDS011;39574;50.534;8.500;2022-09-09T20:07:09;3.2;;;0.8;;
53674;SDS011;39574;50.534;8.500;2022-09-09T20:12:08;2.9;;;0.8;;
53674;SDS011;39574;50.534;8.500;2022-09-09T20:17:07;3.3;;;0.9;;
53674;SDS011;39574;50.534;8.500;2022-09-09T20:27:06;2.8;;;0.8;;
53674;SDS011;39574;50.534;8.500;2022-09-09T20:32:05;2.3;;;0.7;;
53674;SDS011;39574;50.534;8.500;2022-09-09T20:37:05;2.4;;;0.6;;
53674;SDS011;39574;50.534;8.500;2022-09-09T20:42:04;2.0;;;0.6;;
53674;SDS011;39574;50.534;8.500;2022-09-09T20:47:03;2.6;;;0.6;;
53674;SDS011;39574;50.534;8.500;2022-09-09T20:52:03;2.8;;;0.7;;
53674;SDS011;39574;50.534;8.500;2022-09-09T20:57:04;2.7;;;0.7;;
53674;SDS011;39574;50.534;8.500;2022-09-09T21:02:03;2.5;;;0.8;;
53674;SDS011;39574;50.534;8.500;2022-09-09T21:07:02;2.2;;;0.7;;
53674;SDS011;39574;50.534;8.500;2022-09-09T21:16:59;3.3;;;0.7;;
53674;SDS011;39574;50.534;8.500;2022-09-09T21:21:59;3.0;;;0.8;;
53674;SDS011;39574;50.534;8.500;2022-09-09T21:26:58;2.7;;;0.8;;
53674;SDS011;39574;50.534;8.500;2022-09-09T21:31:57;2.4;;;0.7;;
53674;SDS011;39574;50.534;8.500;2022-09-09T21:36:56;2.8;;;0.6;;
53674;SDS011;39574;50.534;8.500;2022-09-09T21:41:56;2.9;;;0.6;;
53674;SDS011;39574;50.534;8.500;2022-09-09T21:51:54;2.5;;;0.6;;
53674;SDS011;39574;50.534;8.500;2022-09-09T21:56:53;2.2;;;0.7;;
53674;SDS011;39574;50.534;8.500;2022-09-09T22:01:53;2.1;;;0.6;;
53674;SDS011;39574;50.534;8.500;2022-09-09T22:06:52;2.2;;;0.6;;
53674;SDS011;39574;50.534;8.500;2022-09-09T22:11:51;2.1;;;0.6;;
53674;SDS011;39574;50.534;8.500;2022-09-09T22:16:51;2.1;;;0.5;;
53674;SDS011;39574;50.534;8.500;2022-09-09T22:21:50;1.9;;;0.6;;
53674;SDS011;39574;50.534;8.500;2022-09-09T22:26:49;1.9;;;0.7;;
53674;SDS011;39574;50.534;8.500;2022-09-09T22:31:48;1.8;;;0.8;;
53674;SDS011;39574;50.534;8.500;2022-09-09T22:36:48;2.9;;;0.9;;
53674;SDS011;39574;50.534;8.500;2022-09-09T22:41:47;2.8;;;0.9;;
53674;SDS011;39574;50.534;8.500;2022-09-09T22:46:46;2.4;;;0.9;;
53674;SDS011;39574;50.534;8.500;2022-09-09T22:51:45;2.6;;;0.9;;
53674;SDS011;39574;50.534;8.500;2022-09-09T22:56:45;2.1;;;0.8;;
53674;SDS011;39574;50.534;8.500;2022-09-09T23:01:44;2.0;;;0.7;;
53674;SDS011;39574;50.534;8.500;2022-09-09T23:06:43;1.9;;;0.7;;
53674;SDS011;39574;50.534;8.500;2022-09-09T23:11:42;2.8;;;0.6;;
53674;SDS011;39574;50.534;8.500;2022-09-09T23:16:42;2.9;;;0.6;;
53674;SDS011;39574;50.534;8.500;2022-09-09T23:21:42;2.5;;;0.7;;
53674;SDS011;39574;50.534;8.500;2022-09-09T23:26:40;2.0;;;0.7;;
53674;SDS011;39574;50.534;8.500;2022-09-09T23:31:40;1.9;;;0.6;;
53674;SDS011;39574;50.534;8.500;2022-09-09T23:36:39;1.7;;;0.6;;
53674;SDS011;39574;50.534;8.500;2022-09-09T23:41:38;1.8;;;0.6;;
53674;SDS011;39574;50.534;8.500;2022-09-09T23:46:37;2.3;;;0.7;;
53674;SDS011;39574;50.534;8.500;2022-09-09T23:51:36;3.3;;;0.7;;
53674;SDS011;39574;50.534;8.500;2022-09-09T23:56:36;3.4;;;0.7;;
